createdAt,value
2022-08-05T00:00:46.302Z,98482.32
2022-08-05T00:03:19.487Z,98481.27
2022-08-05T00:06:05.496Z,98486.24
2022-08-05T00:08:36.257Z,98491.81
2022-08-05T00:11:07.570Z,98490.27
2022-08-05T00:13:53.263Z,98487.95
2022-08-05T00:16:35.294Z,98489.43
2022-08-05T00:19:05.121Z,98489.94
2022-08-05T00:21:35.911Z,98488.33
2022-08-05T00:24:10.391Z,98487.65
2022-08-05T00:26:39.083Z,98487.60
2022-08-05T00:29:14.940Z,98483.09
2022-08-05T00:32:11.063Z,98484.17
2022-08-05T00:34:53.413Z,98486.02
2022-08-05T00:37:20.300Z,98486.54
2022-08-05T00:39:57.858Z,98486.78
2022-08-05T00:42:36.616Z,98483.09
2022-08-05T00:45:08.535Z,98477.27
2022-08-05T00:47:56.476Z,98476.71
2022-08-05T00:50:25.768Z,98475.17
2022-08-05T00:52:55.276Z,98471.93
2022-08-05T00:55:42.226Z,98473.25
2022-08-05T00:58:12.117Z,98474.45
2022-08-05T01:00:42.249Z,98469.98
2022-08-05T01:03:22.337Z,98471.19
2022-08-05T01:05:54.616Z,98475.72
2022-08-05T01:08:42.232Z,98472.05
2022-08-05T01:11:14.324Z,98471.04
2022-08-05T01:14:11.465Z,98467.52
2022-08-05T01:16:57.620Z,98466.84
2022-08-05T01:19:56.919Z,98467.55
2022-08-05T01:22:32.283Z,98468.33
2022-08-05T01:25:20.941Z,98466.16
2022-08-05T01:28:00.450Z,98465.61
2022-08-05T01:30:34.085Z,98468.20
2022-08-05T01:33:06.337Z,98469.02
2022-08-05T01:35:52.148Z,98470.49
2022-08-05T01:38:26.957Z,98470.77
2022-08-05T01:40:58.928Z,98471.98
2022-08-05T01:43:28.281Z,98466.06
2022-08-05T01:45:57.586Z,98467.42
2022-08-05T01:48:27.634Z,98469.54
2022-08-05T01:50:58.005Z,98467.75
2022-08-05T01:53:57.419Z,98463.25
2022-08-05T01:58:10.721Z,98465.09
2022-08-05T01:59:16.035Z,98468.23
2022-08-05T02:01:47.104Z,98464.45
2022-08-05T02:04:18.843Z,98460.83
2022-08-05T02:06:46.994Z,98456.13
2022-08-05T02:09:16.338Z,98455.91
2022-08-05T02:11:48.023Z,98455.05
2022-08-05T02:14:32.624Z,98456.45
2022-08-05T02:17:05.578Z,98456.03
2022-08-05T02:19:47.237Z,98455.55
2022-08-05T02:22:25.843Z,98453.98
2022-08-05T02:25:16.975Z,98456.33
2022-08-05T02:27:57.991Z,98457.45
2022-08-05T02:30:34.284Z,98456.02
2022-08-05T02:33:04.016Z,98452.75
2022-08-05T02:35:44.927Z,98447.44
2022-08-05T02:38:25.512Z,98448.59
2022-08-05T02:41:14.790Z,98448.42
2022-08-05T02:44:06.309Z,98450.59
2022-08-05T02:46:53.519Z,98454.16
2022-08-05T02:49:26.030Z,98457.02
2022-08-05T02:52:03.655Z,98461.04
2022-08-05T02:54:35.928Z,98462.89
2022-08-05T02:58:09.459Z,98462.89
2022-08-05T02:59:59.477Z,98464.34
2022-08-05T03:02:34.187Z,98465.80
2022-08-05T03:05:02.387Z,98470.47
2022-08-05T03:08:00.372Z,98471.98
2022-08-05T03:10:25.156Z,98468.83
2022-08-05T03:15:25.355Z,98470.17
2022-08-05T03:17:55.558Z,98470.00
2022-08-05T03:20:24.880Z,98475.69
2022-08-05T03:22:57.756Z,98472.85
2022-08-05T03:25:34.016Z,98472.85
2022-08-05T03:28:18.776Z,98469.98
2022-08-05T03:30:49.658Z,98471.77
2022-08-05T03:33:18.907Z,98471.23
2022-08-05T03:35:48.326Z,98470.84
2022-08-05T03:38:32.617Z,98471.50
2022-08-05T03:41:08.500Z,98471.39
2022-08-05T03:44:09.830Z,98469.65
2022-08-05T03:46:29.741Z,98470.63
2022-08-05T03:48:58.682Z,98474.10
2022-08-05T03:52:39.131Z,98476.41
2022-08-05T03:55:34.664Z,98473.86
2022-08-05T03:57:42.202Z,98474.36
2022-08-05T04:00:16.020Z,98475.13
2022-08-05T04:02:58.035Z,98474.46
2022-08-05T04:05:35.409Z,98469.70
2022-08-05T04:08:05.670Z,98471.00
2022-08-05T04:10:44.372Z,98470.84
2022-08-05T04:13:13.065Z,98469.00
2022-08-05T04:16:03.254Z,98470.16
2022-08-05T04:18:29.530Z,98468.36
2022-08-05T04:20:58.341Z,98468.95
2022-08-05T04:24:05.368Z,98470.14
2022-08-05T04:26:15.781Z,98470.73
2022-08-05T04:28:51.107Z,98472.89
2022-08-05T04:31:23.762Z,98471.68
2022-08-05T04:34:18.321Z,98473.14
2022-08-05T04:36:50.540Z,98470.55
2022-08-05T04:39:19.604Z,98475.11
2022-08-05T04:41:48.559Z,98472.89
2022-08-05T04:44:21.463Z,98473.90
2022-08-05T04:46:59.114Z,98472.30
2022-08-05T04:49:38.911Z,98471.08
2022-08-05T04:52:16.408Z,98471.66
2022-08-05T04:54:44.554Z,98472.77
2022-08-05T04:57:12.635Z,98474.36
2022-08-05T04:59:42.194Z,98470.05
2022-08-05T05:02:37.701Z,98465.90
2022-08-05T05:05:26.250Z,98464.50
2022-08-05T05:08:14.477Z,98464.56
2022-08-05T05:10:56.753Z,98463.99
2022-08-05T05:13:32.454Z,98462.58
2022-08-05T05:16:13.733Z,98459.47
2022-08-05T05:19:09.008Z,98458.07
2022-08-05T05:21:32.932Z,98452.20
2022-08-05T05:24:04.065Z,98449.79
2022-08-05T05:26:36.885Z,98453.75
2022-08-05T05:29:14.467Z,98454.52
2022-08-05T05:31:46.410Z,98451.89
2022-08-05T05:34:18.149Z,98451.94
2022-08-05T05:36:52.171Z,98452.27
2022-08-05T05:39:20.185Z,98448.92
2022-08-05T05:41:54.252Z,98448.77
2022-08-05T05:44:37.477Z,98450.63
2022-08-05T05:47:21.769Z,98450.96
2022-08-05T05:49:56.937Z,98450.80
2022-08-05T05:52:38.042Z,98453.83
2022-08-05T05:55:13.397Z,98453.84
2022-08-05T05:57:53.009Z,98455.38
2022-08-05T06:00:21.851Z,98452.02
2022-08-05T06:03:01.324Z,98452.42
2022-08-05T06:05:29.455Z,98448.40
2022-08-05T06:08:02.172Z,98447.89
2022-08-05T06:10:34.493Z,98449.70
2022-08-05T06:13:06.413Z,98442.80
2022-08-05T06:16:29.706Z,98443.36
2022-08-05T06:18:31.051Z,98442.67
2022-08-05T06:21:00.652Z,98442.60
2022-08-05T06:23:43.466Z,98442.86
2022-08-05T06:26:21.372Z,98448.34
2022-08-05T06:28:53.189Z,98448.34
2022-08-05T06:31:22.300Z,98445.84
2022-08-05T06:34:07.022Z,98443.27
2022-08-05T06:36:57.172Z,98440.82
2022-08-05T06:39:31.347Z,98441.95
2022-08-05T06:42:03.866Z,98441.37
2022-08-05T06:44:32.836Z,98441.65
2022-08-05T06:47:02.272Z,98435.14
2022-08-05T06:50:01.075Z,98439.29
2022-08-05T06:52:37.733Z,98436.70
2022-08-05T06:55:07.222Z,98439.08
2022-08-05T06:58:03.493Z,98440.75
2022-08-05T07:00:24.970Z,98435.89
2022-08-05T07:02:54.282Z,98432.86
2022-08-05T07:05:27.837Z,98431.58
2022-08-05T07:08:06.683Z,98427.48
2022-08-05T07:10:52.507Z,98420.33
2022-08-05T07:13:59.228Z,98416.65
2022-08-05T07:18:01.614Z,98415.67
2022-08-05T07:22:28.681Z,98406.38
2022-08-05T07:24:59.223Z,98401.42
2022-08-05T07:27:56.712Z,98399.66
2022-08-05T07:30:24.328Z,98392.42
2022-08-05T07:32:58.770Z,98389.52
2022-08-05T07:36:04.264Z,98387.84
2022-08-05T07:38:32.401Z,98392.23
2022-08-05T07:42:09.440Z,98393.13
2022-08-05T07:43:58.529Z,98388.14
2022-08-05T07:46:27.787Z,98390.37
2022-08-05T07:49:02.504Z,98389.82
2022-08-05T07:51:36.192Z,98388.52
2022-08-05T07:54:08.340Z,98383.51
2022-08-05T07:56:59.931Z,98384.58
2022-08-05T07:59:38.312Z,98383.58
2022-08-05T08:02:16.859Z,98380.29
2022-08-05T08:04:47.672Z,98385.10
2022-08-05T08:07:22.871Z,98383.06
2022-08-05T08:09:55.025Z,98383.83
2022-08-05T08:12:35.396Z,98383.83
2022-08-05T08:15:15.115Z,98382.06
2022-08-05T08:17:49.693Z,98380.40
2022-08-05T08:21:00.032Z,98376.48
2022-08-05T08:24:00.969Z,98378.58
2022-08-05T08:26:06.339Z,98375.65
2022-08-05T08:28:55.236Z,98374.11
2022-08-05T08:31:24.395Z,98370.86
2022-08-05T08:33:55.175Z,98367.13
2022-08-05T08:36:39.187Z,98368.36
2022-08-05T08:39:15.201Z,98361.56
2022-08-05T08:41:51.167Z,98361.23
2022-08-05T08:45:24.352Z,98359.80
2022-08-05T08:47:47.577Z,98351.08
2022-08-05T08:50:23.370Z,98348.63
2022-08-05T08:52:59.449Z,98343.63
2022-08-05T08:56:01.924Z,98341.41
2022-08-05T08:58:17.820Z,98335.65
2022-08-05T09:00:46.811Z,98337.02
2022-08-05T09:03:19.306Z,98332.91
2022-08-05T09:06:07.843Z,98330.76
2022-08-05T09:08:40.277Z,98328.58
2022-08-05T09:11:12.331Z,98322.94
2022-08-05T09:14:10.328Z,98322.66
2022-08-05T09:16:31.633Z,98324.23
2022-08-05T09:18:59.748Z,98319.13
2022-08-05T09:22:23.205Z,98315.20
2022-08-05T09:24:30.840Z,98307.95
2022-08-05T09:26:59.906Z,98307.02
2022-08-05T09:29:54.399Z,98305.88
2022-08-05T09:32:41.483Z,98299.76
2022-08-05T09:35:26.705Z,98296.85
2022-08-05T09:38:18.415Z,98290.08
2022-08-05T09:40:53.577Z,98292.05
2022-08-05T09:43:41.473Z,98284.56
2022-08-05T09:46:27.492Z,98279.81
2022-08-05T09:49:08.064Z,98277.48
2022-08-05T09:51:49.592Z,98272.48
2022-08-05T09:54:30.767Z,98275.17
2022-08-05T09:57:01.674Z,98275.15
2022-08-05T09:59:35.199Z,98271.67
2022-08-05T10:02:05.615Z,98272.79
2022-08-05T10:04:39.391Z,98272.80
2022-08-05T10:07:20.481Z,98269.29
2022-08-05T10:10:13.749Z,98271.52
2022-08-05T10:12:51.020Z,98271.55
2022-08-05T10:15:27.196Z,98266.23
2022-08-05T10:18:20.243Z,98262.00
2022-08-05T10:20:49.145Z,98257.19
2022-08-05T10:23:33.980Z,98259.07
2022-08-05T10:26:51.686Z,98254.69
2022-08-05T10:28:59.270Z,98254.98
2022-08-05T10:32:52.720Z,98249.34
2022-08-05T10:34:16.958Z,98247.88
2022-08-05T10:36:45.847Z,98246.84
2022-08-05T10:40:03.039Z,98240.89
2022-08-05T10:42:18.490Z,98236.35
2022-08-05T10:44:48.057Z,98233.20
2022-08-05T10:47:26.562Z,98229.96
2022-08-05T10:50:32.088Z,98227.29
2022-08-05T10:53:00.257Z,98216.41
2022-08-05T10:55:38.587Z,98213.92
2022-08-05T10:58:20.917Z,98211.02
2022-08-05T11:00:55.411Z,98210.09
2022-08-05T11:03:31.206Z,98213.58
2022-08-05T11:06:04.811Z,98210.08
2022-08-05T11:08:37.085Z,98205.44
2022-08-05T11:11:24.163Z,98200.91
2022-08-05T11:14:02.080Z,98205.93
2022-08-05T11:16:33.884Z,98207.86
2022-08-05T11:20:10.111Z,98205.47
2022-08-05T11:22:49.870Z,98201.33
2022-08-05T11:26:04.517Z,98193.48
2022-08-05T11:28:21.864Z,98187.48
2022-08-05T11:31:02.274Z,98185.59
2022-08-05T11:33:46.342Z,98186.70
2022-08-05T11:36:44.841Z,98182.27
2022-08-05T11:39:16.020Z,98187.73
2022-08-05T11:42:01.946Z,98184.20
2022-08-05T11:44:53.262Z,98182.80
2022-08-05T11:47:49.047Z,98178.77
2022-08-05T11:50:21.010Z,98175.48
2022-08-05T11:52:52.076Z,98179.77
2022-08-05T11:55:22.868Z,98172.27
2022-08-05T11:58:09.649Z,98171.84
2022-08-05T12:00:41.554Z,98174.12
2022-08-05T12:03:28.695Z,98169.61
2022-08-05T12:06:02.151Z,98173.05
2022-08-05T12:08:31.473Z,98169.73
2022-08-05T12:11:05.785Z,98166.89
2022-08-05T12:13:48.973Z,98166.93
2022-08-05T12:16:19.824Z,98167.73
2022-08-05T12:18:53.779Z,98161.92
2022-08-05T12:21:24.073Z,98158.65
2022-08-05T12:23:54.064Z,98156.56
2022-08-05T12:26:23.181Z,98156.55
2022-08-05T12:28:52.463Z,98157.55
2022-08-05T12:31:23.652Z,98154.01
2022-08-05T12:34:03.271Z,98154.79
2022-08-05T12:36:32.345Z,98149.14
2022-08-05T12:39:00.823Z,98147.67
2022-08-05T12:41:34.364Z,98141.88
2022-08-05T12:44:14.172Z,98140.70
2022-08-05T12:46:51.988Z,98139.02
2022-08-05T12:49:20.313Z,98131.70
2022-08-05T12:52:12.755Z,98130.55
2022-08-05T12:54:51.481Z,98128.29
2022-08-05T12:57:23.402Z,98129.23
2022-08-05T13:01:58.022Z,98128.05
2022-08-05T13:02:50.802Z,98124.94
2022-08-05T13:05:20.018Z,98123.55
2022-08-05T13:07:59.987Z,98125.39
2022-08-05T13:10:31.493Z,98120.15
2022-08-05T13:13:00.770Z,98122.61
2022-08-05T13:15:41.971Z,98122.47
2022-08-05T13:18:20.037Z,98119.96
2022-08-05T13:20:49.908Z,98123.54
2022-08-05T13:23:22.228Z,98121.66
2022-08-05T13:25:59.524Z,98118.02
2022-08-05T13:28:29.421Z,98114.63
2022-08-05T13:31:03.316Z,98116.84
2022-08-05T13:34:24.676Z,98113.08
2022-08-05T13:36:27.572Z,98110.85
2022-08-05T13:38:57.476Z,98113.34
2022-08-05T13:41:35.841Z,98113.20
2022-08-05T13:44:10.028Z,98112.23
2022-08-05T13:47:01.683Z,98110.77
2022-08-05T13:49:46.669Z,98112.43
2022-08-05T13:52:18.844Z,98110.84
2022-08-05T13:55:07.901Z,98104.51
2022-08-05T13:57:48.582Z,98103.48
2022-08-05T14:00:17.487Z,98098.23
2022-08-05T14:02:46.145Z,98101.97
2022-08-05T14:05:29.206Z,98098.16
2022-08-05T14:08:03.127Z,98094.48
2022-08-05T14:10:39.232Z,98092.98
2022-08-05T14:13:08.004Z,98089.64
2022-08-05T14:16:09.254Z,98088.56
2022-08-05T14:18:25.384Z,98089.41
2022-08-05T14:20:55.400Z,98087.73
2022-08-05T14:23:26.270Z,98080.27
2022-08-05T14:25:58.763Z,98082.06
2022-08-05T14:28:32.600Z,98085.36
2022-08-05T14:31:01.064Z,98084.21
2022-08-05T14:33:56.343Z,98078.92
2022-08-05T14:39:23.722Z,98075.55
2022-08-05T14:42:19.485Z,98073.51
2022-08-05T14:44:40.583Z,98075.51
2022-08-05T14:47:09.714Z,98073.19
2022-08-05T14:49:58.546Z,98073.79
2022-08-05T14:52:51.840Z,98072.16
2022-08-05T14:55:24.793Z,98073.44
2022-08-05T14:57:56.466Z,98069.39
2022-08-05T15:00:28.197Z,98066.13
2022-08-05T15:02:58.218Z,98063.14
2022-08-05T15:05:29.798Z,98062.52
2022-08-05T15:08:10.766Z,98061.42
2022-08-05T15:10:46.095Z,98058.98
2022-08-05T15:13:15.189Z,98053.24
2022-08-05T15:15:55.763Z,98047.68
2022-08-05T15:18:25.233Z,98043.88
2022-08-05T15:20:53.640Z,98042.98
2022-08-05T15:23:21.858Z,98039.92
2022-08-05T15:25:54.686Z,98040.20
2022-08-05T15:28:27.457Z,98039.27
2022-08-05T15:30:57.247Z,98036.82
2022-08-05T15:34:18.371Z,98035.08
2022-08-05T15:36:17.422Z,98038.02
2022-08-05T15:41:01.025Z,98035.55
2022-08-05T15:41:56.053Z,98036.77
2022-08-05T15:44:30.815Z,98035.56
2022-08-05T15:47:01.764Z,98034.02
2022-08-05T15:49:53.644Z,98032.64
2022-08-05T15:52:29.701Z,98031.89
2022-08-05T15:55:10.402Z,98030.81
2022-08-05T15:57:45.088Z,98028.73
2022-08-05T16:00:16.700Z,98029.94
2022-08-05T16:02:45.520Z,98027.38
2022-08-05T16:05:15.112Z,98024.25
2022-08-05T16:07:46.326Z,98025.19
2022-08-05T16:10:25.410Z,98024.20
2022-08-05T16:12:56.319Z,98025.42
2022-08-05T16:15:24.477Z,98022.52
2022-08-05T16:18:04.233Z,98024.42
2022-08-05T16:20:37.538Z,98027.71
2022-08-05T16:23:08.420Z,98023.72
2022-08-05T16:25:37.545Z,98027.97
2022-08-05T16:28:06.575Z,98027.80
2022-08-05T16:30:38.233Z,98025.90
2022-08-05T16:33:06.978Z,98025.41
2022-08-05T16:35:42.301Z,98024.91
2022-08-05T16:38:23.747Z,98023.72
2022-08-05T16:40:55.346Z,98028.33
2022-08-05T16:43:31.445Z,98029.58
2022-08-05T16:46:03.702Z,98032.83
2022-08-05T16:48:38.791Z,98031.98
2022-08-05T16:51:09.330Z,98034.52
2022-08-05T16:54:06.299Z,98037.05
2022-08-05T16:56:30.551Z,98037.71
2022-08-05T16:59:07.578Z,98038.78
2022-08-05T17:01:52.827Z,98046.08
2022-08-05T17:04:26.436Z,98041.36
2022-08-05T17:06:57.060Z,98043.17
2022-08-05T17:09:30.225Z,98046.10
2022-08-05T17:12:00.126Z,98045.46
2022-08-05T17:14:37.008Z,98045.48
2022-08-05T17:17:14.392Z,98050.16
2022-08-05T17:19:45.280Z,98052.14
2022-08-05T17:22:17.713Z,98053.25
2022-08-05T17:24:57.921Z,98051.11
2022-08-05T17:27:34.332Z,98052.54
2022-08-05T17:30:04.562Z,98058.42
2022-08-05T17:32:42.002Z,98059.86
2022-08-05T17:35:12.299Z,98066.65
2022-08-05T17:37:45.101Z,98068.56
2022-08-05T17:40:17.190Z,98067.35
2022-08-05T17:42:50.790Z,98071.27
2022-08-05T17:45:22.455Z,98070.52
2022-08-05T17:47:55.749Z,98070.59
2022-08-05T17:50:29.024Z,98070.55
2022-08-05T17:53:00.660Z,98071.64
2022-08-05T17:55:38.021Z,98069.74
2022-08-05T17:58:11.271Z,98072.22
2022-08-05T18:00:45.065Z,98072.91
2022-08-05T18:03:39.185Z,98071.39
2022-08-05T18:06:10.985Z,98077.23
2022-08-05T18:08:44.699Z,98085.46
2022-08-05T18:11:24.793Z,98090.40
2022-08-05T18:14:07.480Z,98096.88
2022-08-05T18:16:51.105Z,98102.23
2022-08-05T18:19:22.957Z,98108.67
2022-08-05T18:22:08.832Z,98111.70
2022-08-05T18:24:39.371Z,98113.67
2022-08-05T18:27:12.905Z,98113.89
2022-08-05T18:29:53.593Z,98115.02
2022-08-05T18:32:28.123Z,98112.46
2022-08-05T18:34:57.844Z,98117.61
2022-08-05T18:37:34.184Z,98122.98
2022-08-05T18:40:34.397Z,98128.61
2022-08-05T18:42:58.434Z,98130.98
2022-08-05T18:45:41.486Z,98135.30
2022-08-05T18:48:17.539Z,98139.13
2022-08-05T18:52:04.357Z,98138.80
2022-08-05T18:54:09.001Z,98137.73
2022-08-05T18:56:36.956Z,98135.88
2022-08-05T18:59:44.228Z,98134.34
2022-08-05T19:01:57.978Z,98138.77
2022-08-05T19:04:26.962Z,98145.27
2022-08-05T19:06:56.846Z,98148.73
2022-08-05T19:09:24.996Z,98146.23
2022-08-05T19:12:00.693Z,98147.56
2022-08-05T19:14:53.315Z,98147.77
2022-08-05T19:17:20.263Z,98147.92
2022-08-05T19:19:50.108Z,98146.31
2022-08-05T19:22:18.550Z,98146.04
2022-08-05T19:25:00.859Z,98143.64
2022-08-05T19:27:30.945Z,98145.66
2022-08-05T19:30:02.727Z,98142.63
2022-08-05T19:32:30.955Z,98141.77
2022-08-05T19:34:59.115Z,98143.75
2022-08-05T19:37:47.332Z,98146.16
2022-08-05T19:40:24.359Z,98149.48
2022-08-05T19:43:04.694Z,98158.16
2022-08-05T19:45:36.990Z,98156.26
2022-08-05T19:48:07.196Z,98160.13
2022-08-05T19:50:43.010Z,98167.05
2022-08-05T19:53:11.328Z,98172.81
2022-08-05T19:56:14.733Z,98176.41
2022-08-05T19:58:29.833Z,98170.77
2022-08-05T20:00:58.759Z,98170.95
2022-08-05T20:03:37.992Z,98175.86
2022-08-05T20:06:15.767Z,98178.89
2022-08-05T20:09:13.700Z,98178.57
2022-08-05T20:11:48.318Z,98175.15
2022-08-05T20:14:27.149Z,98176.13
2022-08-05T20:16:56.026Z,98179.31
2022-08-05T20:19:26.066Z,98176.98
2022-08-05T20:22:04.093Z,98173.48
2022-08-05T20:24:34.525Z,98175.17
2022-08-05T20:27:03.271Z,98177.83
2022-08-05T20:29:41.144Z,98178.85
2022-08-05T20:32:21.064Z,98178.15
2022-08-05T20:34:49.066Z,98180.48
2022-08-05T20:37:24.075Z,98182.17
2022-08-05T20:40:05.690Z,98182.73
2022-08-05T20:42:37.201Z,98181.42
2022-08-05T20:45:06.087Z,98180.77
2022-08-05T20:47:34.154Z,98183.58
2022-08-05T20:50:08.786Z,98184.05
2022-08-05T20:52:41.345Z,98178.56
2022-08-05T20:55:56.692Z,98180.02
2022-08-05T20:58:12.537Z,98184.52
2022-08-05T21:00:54.499Z,98184.34
2022-08-05T21:03:26.096Z,98180.79
2022-08-05T21:05:55.672Z,98183.51
2022-08-05T21:08:35.936Z,98180.95
2022-08-05T21:12:10.490Z,98183.31
2022-08-05T21:14:06.307Z,98186.79
2022-08-05T21:16:36.666Z,98184.23
2022-08-05T21:19:04.747Z,98183.27
2022-08-05T21:21:39.717Z,98186.39
2022-08-05T21:24:15.194Z,98181.57
2022-08-05T21:26:50.571Z,98182.52
2022-08-05T21:29:23.601Z,98188.72
2022-08-05T21:31:55.152Z,98193.43
2022-08-05T21:34:24.018Z,98192.58
2022-08-05T21:36:52.531Z,98190.78
2022-08-05T21:39:26.914Z,98191.75
2022-08-05T21:42:01.711Z,98192.27
2022-08-05T21:44:31.633Z,98193.56
2022-08-05T21:47:00.319Z,98197.42
2022-08-05T21:49:58.950Z,98191.46
2022-08-05T21:52:27.206Z,98191.98
2022-08-05T21:54:57.792Z,98187.92
2022-08-05T21:57:35.731Z,98189.21
2022-08-05T22:00:10.820Z,98190.13
2022-08-05T22:02:43.793Z,98188.90
2022-08-05T22:05:13.981Z,98190.97
2022-08-05T22:07:59.002Z,98189.05
2022-08-05T22:10:28.389Z,98189.65
2022-08-05T22:12:59.200Z,98189.39
2022-08-05T22:16:02.492Z,98191.58
2022-08-05T22:18:26.678Z,98191.85
2022-08-05T22:20:55.887Z,98191.16
2022-08-05T22:24:03.143Z,98192.16
2022-08-05T22:26:56.506Z,98187.80
2022-08-05T22:29:30.517Z,98188.59
2022-08-05T22:32:03.139Z,98185.45
2022-08-05T22:34:32.488Z,98185.85
2022-08-05T22:37:03.925Z,98184.14
2022-08-05T22:39:35.054Z,98181.76
2022-08-05T22:42:11.511Z,98185.02
2022-08-05T22:44:48.458Z,98183.23
2022-08-05T22:47:30.202Z,98184.56
2022-08-05T22:50:19.663Z,98181.05
2022-08-05T22:52:51.327Z,98181.55
2022-08-05T22:55:22.013Z,98184.42
2022-08-05T22:57:51.139Z,98182.68
2022-08-05T23:00:20.802Z,98181.33
2022-08-05T23:02:52.243Z,98180.02
2022-08-05T23:05:22.079Z,98180.39
2022-08-05T23:07:51.412Z,98181.30
2022-08-05T23:10:23.399Z,98181.07
2022-08-05T23:12:54.513Z,98180.28
2022-08-05T23:15:29.344Z,98179.64
2022-08-05T23:18:01.402Z,98179.02
2022-08-05T23:20:33.007Z,98179.91
2022-08-05T23:23:03.543Z,98178.95
2022-08-05T23:25:52.395Z,98177.25
2022-08-05T23:28:26.886Z,98173.09
2022-08-05T23:31:16.231Z,98171.77
2022-08-05T23:34:04.915Z,98178.48
2022-08-05T23:36:38.460Z,98181.38
2022-08-05T23:39:10.283Z,98182.27
2022-08-05T23:41:48.738Z,98180.58
2022-08-05T23:44:17.136Z,98175.84
2022-08-05T23:46:48.006Z,98175.53
2022-08-05T23:49:23.660Z,98176.34
2022-08-05T23:52:12.775Z,98175.36
2022-08-05T23:54:46.048Z,98177.55
2022-08-05T23:57:14.019Z,98178.80
